createdAt,value
2022-09-01T00:01:03.187Z,5.23
2022-09-01T00:03:30.076Z,5.07
2022-09-01T00:05:57.130Z,5.00
2022-09-01T00:08:24.281Z,4.77
2022-09-01T00:10:51.075Z,5.00
2022-09-01T00:13:18.051Z,5.00
2022-09-01T00:15:44.994Z,4.43
2022-09-01T00:18:11.915Z,4.77
2022-09-01T00:20:38.767Z,4.73
2022-09-01T00:23:05.540Z,3.97
2022-09-01T00:25:32.280Z,4.20
2022-09-01T00:28:00.333Z,4.43
2022-09-01T00:30:27.266Z,4.20
2022-09-01T00:32:54.279Z,4.63
2022-09-01T00:35:21.108Z,4.87
2022-09-01T00:37:47.951Z,4.33
2022-09-01T00:40:15.910Z,4.00
2022-09-01T00:42:44.537Z,4.73
2022-09-01T00:45:11.588Z,4.87
2022-09-01T00:47:38.789Z,4.97
2022-09-01T00:50:06.378Z,5.03
2022-09-01T00:52:38.655Z,4.93
2022-09-01T00:55:13.162Z,4.77
2022-09-01T00:57:40.660Z,4.70
2022-09-01T01:00:20.173Z,5.13
2022-09-01T01:02:47.790Z,4.63
2022-09-01T01:05:16.091Z,5.03
2022-09-01T01:07:47.445Z,5.10
2022-09-01T01:10:17.115Z,5.10
2022-09-01T01:12:44.859Z,5.03
2022-09-01T01:15:14.238Z,5.37
2022-09-01T01:17:41.098Z,5.60
2022-09-01T01:20:27.791Z,5.27
2022-09-01T01:23:05.299Z,5.20
2022-09-01T01:25:48.254Z,5.17
2022-09-01T01:28:36.023Z,5.37
2022-09-01T01:31:12.459Z,4.73
2022-09-01T01:33:42.830Z,5.67
2022-09-01T01:36:16.422Z,5.03
2022-09-01T01:38:44.620Z,5.90
2022-09-01T01:41:11.801Z,5.20
2022-09-01T01:43:39.504Z,5.17
2022-09-01T01:46:08.074Z,5.50
2022-09-01T01:48:39.380Z,5.57
2022-09-01T01:51:06.383Z,5.53
2022-09-01T01:53:33.538Z,5.40
2022-09-01T01:56:01.094Z,5.23
2022-09-01T01:58:33.461Z,5.60
2022-09-01T02:01:04.568Z,4.93
2022-09-01T02:03:36.280Z,5.40
2022-09-01T02:06:04.690Z,5.10
2022-09-01T02:08:35.471Z,5.10
2022-09-01T02:11:05.100Z,5.00
2022-09-01T02:13:32.500Z,5.17
2022-09-01T02:16:04.723Z,4.70
2022-09-01T02:18:36.579Z,5.03
2022-09-01T02:21:15.185Z,5.37
2022-09-01T02:23:44.735Z,5.70
2022-09-01T02:26:16.587Z,5.47
2022-09-01T02:28:54.252Z,5.20
2022-09-01T02:31:27.859Z,5.17
2022-09-01T02:33:55.436Z,5.37
2022-09-01T02:36:22.665Z,6.10
2022-09-01T02:38:53.747Z,5.40
2022-09-01T02:41:25.254Z,7.60
2022-09-01T02:43:52.378Z,5.73
2022-09-01T02:46:23.290Z,5.93
2022-09-01T02:48:52.531Z,5.40
2022-09-01T02:51:22.348Z,5.63
2022-09-01T02:53:52.608Z,6.03
2022-09-01T02:56:22.735Z,6.57
2022-09-01T02:58:53.111Z,5.80
2022-09-01T03:01:24.571Z,5.57
2022-09-01T03:03:53.787Z,6.10
2022-09-01T03:06:20.979Z,5.50
2022-09-01T03:08:48.053Z,5.93
2022-09-01T03:11:15.247Z,6.33
2022-09-01T03:13:42.534Z,5.47
2022-09-01T03:16:10.321Z,5.87
2022-09-01T03:18:38.131Z,5.53
2022-09-01T03:21:08.261Z,6.10
2022-09-01T03:23:35.336Z,6.33
2022-09-01T03:26:02.490Z,5.67
2022-09-01T03:28:29.797Z,5.70
2022-09-01T03:30:57.477Z,6.47
2022-09-01T03:33:26.243Z,6.00
2022-09-01T03:35:54.791Z,5.63
2022-09-01T03:38:23.055Z,6.13
2022-09-01T03:40:52.683Z,6.17
2022-09-01T03:43:23.395Z,5.97
2022-09-01T03:45:50.696Z,5.60
2022-09-01T03:48:17.724Z,5.90
2022-09-01T03:50:45.243Z,5.57
2022-09-01T03:53:13.235Z,5.37
2022-09-01T03:55:40.606Z,5.70
2022-09-01T03:58:10.026Z,4.80
2022-09-01T04:00:39.634Z,5.40
2022-09-01T04:03:08.978Z,4.80
2022-09-01T04:05:37.561Z,5.00
2022-09-01T04:08:05.970Z,5.47
2022-09-01T04:10:37.624Z,4.83
2022-09-01T04:13:05.172Z,5.70
2022-09-01T04:15:34.892Z,4.93
2022-09-01T04:18:08.941Z,4.83
2022-09-01T04:20:48.553Z,6.03
2022-09-01T04:23:26.496Z,4.77
2022-09-01T04:26:08.918Z,5.43
2022-09-01T04:28:38.716Z,5.50
2022-09-01T04:31:09.040Z,5.30
2022-09-01T04:33:39.812Z,5.40
2022-09-01T04:36:14.254Z,5.77
2022-09-01T04:38:41.882Z,5.73
2022-09-01T04:41:09.371Z,5.20
2022-09-01T04:43:36.270Z,5.07
2022-09-01T04:46:03.309Z,5.37
2022-09-01T04:48:31.698Z,5.57
2022-09-01T04:50:58.765Z,5.47
2022-09-01T04:53:28.693Z,4.80
2022-09-01T04:55:56.005Z,5.60
2022-09-01T04:58:26.846Z,5.20
2022-09-01T05:00:55.878Z,5.40
2022-09-01T05:03:24.223Z,5.63
2022-09-01T05:06:05.205Z,6.33
2022-09-01T05:08:35.325Z,6.33
2022-09-01T05:11:07.690Z,5.90
2022-09-01T05:13:46.480Z,5.13
2022-09-01T05:16:15.748Z,5.20
2022-09-01T05:18:47.744Z,4.23
2022-09-01T05:21:17.430Z,5.20
2022-09-01T05:23:45.463Z,5.67
2022-09-01T05:26:16.839Z,4.60
2022-09-01T05:28:44.553Z,4.10
2022-09-01T05:31:12.942Z,3.97
2022-09-01T05:33:45.877Z,4.07
2022-09-01T05:36:13.671Z,4.23
2022-09-01T05:38:42.234Z,3.53
2022-09-01T05:41:14.995Z,4.37
2022-09-01T05:43:47.057Z,4.20
2022-09-01T05:46:16.970Z,4.07
2022-09-01T05:48:44.824Z,3.80
2022-09-01T05:51:40.340Z,3.90
2022-09-01T05:54:02.498Z,3.63
2022-09-01T05:56:31.707Z,3.37
2022-09-01T06:01:50.574Z,4.80
2022-09-01T06:04:17.840Z,4.83
2022-09-01T06:07:05.667Z,3.90
2022-09-01T06:09:42.774Z,4.33
2022-09-01T06:12:17.562Z,3.63
2022-09-01T06:14:46.256Z,5.80
2022-09-01T06:17:16.447Z,4.50
2022-09-01T06:19:44.407Z,3.97
2022-09-01T06:22:11.399Z,3.87
2022-09-01T06:24:43.854Z,3.23
2022-09-01T06:27:12.490Z,3.63
2022-09-01T06:29:42.457Z,3.97
2022-09-01T06:32:12.445Z,4.10
2022-09-01T06:34:42.291Z,4.13
2022-09-01T06:37:09.836Z,4.17
2022-09-01T06:39:37.095Z,4.20
2022-09-01T06:42:06.229Z,5.73
2022-09-01T06:44:45.897Z,4.93
2022-09-01T06:47:12.949Z,4.63
2022-09-01T06:49:40.856Z,3.87
2022-09-01T06:52:16.005Z,3.73
2022-09-01T06:54:43.964Z,3.80
2022-09-01T06:59:59.419Z,5.33
2022-09-01T07:02:26.853Z,5.50
2022-09-01T07:08:10.631Z,4.43
2022-09-01T07:14:21.296Z,3.67
2022-09-01T07:19:50.757Z,4.63
2022-09-01T07:25:13.469Z,3.93
2022-09-01T07:28:03.674Z,6.57
2022-09-01T07:30:31.958Z,3.67
2022-09-01T07:33:41.671Z,4.10
2022-09-01T07:39:48.229Z,3.90
2022-09-01T07:42:31.991Z,3.77
2022-09-01T07:42:58.862Z,3.87
2022-09-01T07:44:28.016Z,3.73
2022-09-01T07:47:52.297Z,3.60
2022-09-01T07:52:52.074Z,4.03
2022-09-01T07:55:19.049Z,3.77
2022-09-01T07:57:46.223Z,4.13
2022-09-01T08:00:15.980Z,5.47
2022-09-01T08:02:55.174Z,3.27
2022-09-01T08:05:27.084Z,3.90
2022-09-01T08:07:54.582Z,3.30
2022-09-01T08:10:27.166Z,5.70
2022-09-01T08:12:56.853Z,4.43
2022-09-01T08:15:41.717Z,4.87
2022-09-01T08:18:14.187Z,3.17
2022-09-01T08:20:45.414Z,3.47
2022-09-01T08:23:37.642Z,4.87
2022-09-01T08:26:05.980Z,5.17
2022-09-01T08:28:33.671Z,3.57
2022-09-01T08:31:00.861Z,3.77
2022-09-01T08:33:29.388Z,4.20
2022-09-01T08:35:57.223Z,3.27
2022-09-01T08:38:25.441Z,3.90
2022-09-01T08:40:56.272Z,3.23
2022-09-01T08:43:42.779Z,3.60
2022-09-01T08:46:17.009Z,4.17
2022-09-01T08:51:49.607Z,3.10
2022-09-01T08:54:34.927Z,3.47
2022-09-01T08:57:22.273Z,3.00
2022-09-01T09:00:29.135Z,3.50
2022-09-01T09:03:13.426Z,3.40
2022-09-01T09:05:49.111Z,3.40
2022-09-01T09:08:26.661Z,5.13
2022-09-01T09:11:18.287Z,3.10
2022-09-01T09:13:58.847Z,3.20
2022-09-01T09:16:28.335Z,3.10
2022-09-01T09:18:57.809Z,3.20
2022-09-01T09:21:26.918Z,3.00
2022-09-01T09:24:00.624Z,3.40
2022-09-01T09:26:27.600Z,2.90
2022-09-01T09:28:55.083Z,2.83
2022-09-01T09:31:26.010Z,4.20
2022-09-01T09:33:53.921Z,2.80
2022-09-01T09:36:25.403Z,2.37
2022-09-01T09:39:12.771Z,2.87
2022-09-01T09:41:40.570Z,2.67
2022-09-01T09:44:13.344Z,2.30
2022-09-01T09:46:43.689Z,2.60
2022-09-01T09:49:10.839Z,2.50
2022-09-01T09:51:38.286Z,3.47
2022-09-01T09:54:17.304Z,2.57
2022-09-01T09:56:44.654Z,2.40
2022-09-01T09:59:57.192Z,2.60
2022-09-01T10:02:33.953Z,2.67
2022-09-01T10:05:19.910Z,2.80
2022-09-01T10:07:47.525Z,2.73
2022-09-01T10:10:32.669Z,2.60
2022-09-01T10:12:59.825Z,2.63
2022-09-01T10:15:30.035Z,2.53
2022-09-01T10:20:53.164Z,3.00
2022-09-01T10:23:20.033Z,2.40
2022-09-01T10:25:50.206Z,2.97
2022-09-01T10:28:21.184Z,2.73
2022-09-01T10:30:50.725Z,2.50
2022-09-01T10:33:20.894Z,3.10
2022-09-01T10:35:50.655Z,2.50
2022-09-01T10:38:19.996Z,2.40
2022-09-01T10:40:49.664Z,2.50
2022-09-01T10:43:30.665Z,4.43
2022-09-01T10:46:38.773Z,3.63
2022-09-01T10:49:27.533Z,2.33
2022-09-01T10:51:57.053Z,2.60
2022-09-01T10:54:50.450Z,2.53
2022-09-01T10:57:41.871Z,2.90
2022-09-01T11:00:39.929Z,2.40
2022-09-01T11:06:13.546Z,2.50
2022-09-01T11:08:51.034Z,2.30
2022-09-01T11:11:40.992Z,2.50
2022-09-01T11:14:24.927Z,2.70
2022-09-01T11:17:10.792Z,3.13
2022-09-01T11:19:44.524Z,2.70
2022-09-01T11:22:15.428Z,2.47
2022-09-01T11:24:42.527Z,2.47
2022-09-01T11:27:10.123Z,2.53
2022-09-01T11:29:55.600Z,2.47
2022-09-01T11:32:25.510Z,2.70
2022-09-01T11:34:52.752Z,2.60
2022-09-01T11:37:27.482Z,2.60
2022-09-01T11:39:58.497Z,2.57
2022-09-01T11:42:34.609Z,2.40
2022-09-01T11:45:15.514Z,3.80
2022-09-01T11:47:54.765Z,2.73
2022-09-01T11:50:24.366Z,2.70
2022-09-01T11:52:57.622Z,2.50
2022-09-01T11:55:34.085Z,2.83
2022-09-01T11:58:01.627Z,2.50
2022-09-01T12:00:32.848Z,2.63
2022-09-01T12:03:00.298Z,2.83
2022-09-01T12:05:32.666Z,3.07
2022-09-01T12:08:01.699Z,3.23
2022-09-01T12:10:31.546Z,3.73
2022-09-01T12:13:02.951Z,2.87
2022-09-01T12:15:30.679Z,3.17
2022-09-01T12:18:18.885Z,3.27
2022-09-01T12:23:24.380Z,2.60
2022-09-01T12:25:52.530Z,3.10
2022-09-01T12:28:19.460Z,2.97
2022-09-01T12:30:46.277Z,2.90
2022-09-01T12:33:29.613Z,2.87
2022-09-01T12:36:15.059Z,3.33
2022-09-01T12:38:42.067Z,5.20
2022-09-01T12:41:25.819Z,3.17
2022-09-01T12:43:54.849Z,4.00
2022-09-01T12:46:40.386Z,3.20
2022-09-01T12:49:18.269Z,3.53
2022-09-01T12:51:47.680Z,3.27
2022-09-01T12:54:14.549Z,3.10
2022-09-01T12:56:47.874Z,3.00
2022-09-01T12:59:36.387Z,2.70
2022-09-01T13:02:23.013Z,3.03
2022-09-01T13:04:50.574Z,2.83
2022-09-01T13:07:18.081Z,2.80
2022-09-01T13:09:45.941Z,2.70
2022-09-01T13:12:20.183Z,3.30
2022-09-01T13:14:47.438Z,2.67
2022-09-01T13:17:14.858Z,2.63
2022-09-01T13:19:42.042Z,3.30
2022-09-01T13:22:08.877Z,2.43
2022-09-01T13:24:35.687Z,2.73
2022-09-01T13:29:50.305Z,2.30
2022-09-01T13:32:20.519Z,2.43
2022-09-01T13:34:50.791Z,2.50
2022-09-01T13:37:19.287Z,2.47
2022-09-01T13:39:47.092Z,2.27
2022-09-01T13:42:14.914Z,2.30
2022-09-01T13:44:43.907Z,2.90
2022-09-01T13:50:07.524Z,2.40
2022-09-01T13:52:36.689Z,2.43
2022-09-01T13:55:04.185Z,2.47
2022-09-01T13:57:35.681Z,2.33
2022-09-01T14:00:04.701Z,2.33
2022-09-01T14:02:38.141Z,4.70
2022-09-01T14:05:05.281Z,2.60
2022-09-01T14:07:32.391Z,2.40
2022-09-01T14:09:59.387Z,2.50
2022-09-01T14:12:26.342Z,2.60
2022-09-01T14:17:40.108Z,2.70
2022-09-01T14:20:08.371Z,2.70
2022-09-01T14:22:38.470Z,2.53
2022-09-01T14:25:06.013Z,2.50
2022-09-01T14:27:32.877Z,2.77
2022-09-01T14:30:00.833Z,2.37
2022-09-01T14:32:28.027Z,3.50
2022-09-01T14:34:55.191Z,2.60
2022-09-01T14:37:22.537Z,3.00
2022-09-01T14:39:50.358Z,2.73
2022-09-01T14:42:18.982Z,2.30
2022-09-01T14:44:46.530Z,2.40
2022-09-01T14:47:18.265Z,2.50
2022-09-01T14:49:46.676Z,2.90
2022-09-01T14:52:14.288Z,2.77
2022-09-01T14:54:42.435Z,2.70
2022-09-01T14:59:56.208Z,2.77
2022-09-01T15:02:25.189Z,3.20
2022-09-01T15:04:52.031Z,2.60
2022-09-01T15:07:18.821Z,2.10
2022-09-01T15:09:45.647Z,2.30
2022-09-01T15:12:12.471Z,2.13
2022-09-01T15:14:39.429Z,2.20
2022-09-01T15:17:06.966Z,2.70
2022-09-01T15:19:34.373Z,2.63
2022-09-01T15:22:01.183Z,2.97
2022-09-01T15:24:27.945Z,2.50
2022-09-01T15:26:54.979Z,2.40
2022-09-01T15:29:21.713Z,2.07
2022-09-01T15:31:48.520Z,3.20
2022-09-01T15:34:17.068Z,2.53
2022-09-01T15:36:45.298Z,2.33
2022-09-01T15:39:12.452Z,3.77
2022-09-01T15:41:39.277Z,2.60
2022-09-01T15:44:07.061Z,2.60
2022-09-01T15:46:34.655Z,2.43
2022-09-01T15:49:02.666Z,2.60
2022-09-01T15:51:33.883Z,2.43
2022-09-01T15:54:02.675Z,2.47
2022-09-01T15:56:31.178Z,4.43
2022-09-01T15:59:00.771Z,2.73
2022-09-01T16:01:29.356Z,2.50
2022-09-01T16:03:56.276Z,2.53
2022-09-01T16:06:23.311Z,2.83
2022-09-01T16:08:50.467Z,3.23
2022-09-01T16:11:17.351Z,2.70
2022-09-01T16:13:44.280Z,2.60
2022-09-01T16:16:20.097Z,2.40
2022-09-01T16:18:47.031Z,2.43
2022-09-01T16:21:14.737Z,2.00
2022-09-01T16:23:44.779Z,2.07
2022-09-01T16:26:12.143Z,2.30
2022-09-01T16:28:39.549Z,2.80
2022-09-01T16:31:10.595Z,3.53
2022-09-01T16:36:29.957Z,2.67
2022-09-01T16:39:15.942Z,3.00
2022-09-01T16:42:01.338Z,2.37
2022-09-01T16:44:40.094Z,2.60
2022-09-01T16:47:19.537Z,4.07
2022-09-01T16:49:51.978Z,2.53
2022-09-01T16:52:21.517Z,3.07
2022-09-01T16:54:48.315Z,2.50
2022-09-01T16:57:41.236Z,2.53
2022-09-01T17:00:11.219Z,3.60
2022-09-01T17:02:58.220Z,2.50
2022-09-01T17:05:25.040Z,3.60
2022-09-01T17:08:15.825Z,2.53
2022-09-01T17:10:50.579Z,2.60
2022-09-01T17:13:29.494Z,2.60
2022-09-01T17:16:12.587Z,2.50
2022-09-01T17:18:41.516Z,2.63
2022-09-01T17:21:17.356Z,2.50
2022-09-01T17:23:50.000Z,2.90
2022-09-01T17:26:22.267Z,3.83
2022-09-01T17:28:52.742Z,3.07
2022-09-01T17:31:41.817Z,3.30
2022-09-01T17:34:11.689Z,3.17
2022-09-01T17:36:46.650Z,3.00
2022-09-01T17:39:29.197Z,3.17
2022-09-01T17:42:01.181Z,4.57
2022-09-01T17:44:47.058Z,3.77
2022-09-01T17:47:20.101Z,3.33
2022-09-01T17:50:08.051Z,4.23
2022-09-01T17:52:37.874Z,3.43
2022-09-01T17:55:19.795Z,3.80
2022-09-01T17:57:50.935Z,3.50
2022-09-01T18:00:25.538Z,3.60
2022-09-01T18:03:02.436Z,5.23
2022-09-01T18:05:34.516Z,4.03
2022-09-01T18:08:11.424Z,3.70
2022-09-01T18:10:58.528Z,5.40
2022-09-01T18:13:49.123Z,3.30
2022-09-01T18:16:16.342Z,3.40
2022-09-01T18:18:48.469Z,5.20
2022-09-01T18:21:18.652Z,4.27
2022-09-01T18:23:46.105Z,4.53
2022-09-01T18:26:18.828Z,4.73
2022-09-01T18:28:46.244Z,3.60
2022-09-01T18:31:22.329Z,2.90
2022-09-01T18:33:49.173Z,4.93
2022-09-01T18:36:21.819Z,3.63
2022-09-01T18:38:48.579Z,3.70
2022-09-01T18:41:18.131Z,4.30
2022-09-01T18:43:50.082Z,3.20
2022-09-01T18:46:28.772Z,3.17
2022-09-01T18:49:21.762Z,3.07
2022-09-01T18:52:03.545Z,4.50
2022-09-01T18:54:35.522Z,4.37
2022-09-01T18:57:03.795Z,3.03
2022-09-01T18:59:54.705Z,2.93
2022-09-01T19:02:33.723Z,7.17
2022-09-01T19:05:08.549Z,3.13
2022-09-01T19:08:00.189Z,3.07
2022-09-01T19:10:30.783Z,2.73
2022-09-01T19:13:06.723Z,2.60
2022-09-01T19:16:03.099Z,4.43
2022-09-01T19:18:38.367Z,5.63
2022-09-01T19:21:05.360Z,3.83
2022-09-01T19:23:41.198Z,2.67
2022-09-01T19:26:11.389Z,4.07
2022-09-01T19:28:44.745Z,3.37
2022-09-01T19:31:23.727Z,2.30
2022-09-01T19:33:58.331Z,2.90
2022-09-01T19:36:36.010Z,2.30
2022-09-01T19:39:04.150Z,3.13
2022-09-01T19:41:35.535Z,2.77
2022-09-01T19:44:13.126Z,2.10
2022-09-01T19:46:47.068Z,2.10
2022-09-01T19:49:33.894Z,3.53
2022-09-01T19:52:10.650Z,2.27
2022-09-01T19:54:51.810Z,2.20
2022-09-01T19:57:25.036Z,2.43
2022-09-01T20:00:07.983Z,2.10
2022-09-01T20:02:45.373Z,2.60
2022-09-01T20:05:12.282Z,2.93
2022-09-01T20:07:45.833Z,2.27
2022-09-01T20:10:25.701Z,3.10
2022-09-01T20:13:15.452Z,4.33
2022-09-01T20:16:00.646Z,2.27
2022-09-01T20:18:32.707Z,2.40
2022-09-01T20:21:02.514Z,3.00
2022-09-01T20:23:29.338Z,3.83
2022-09-01T20:26:03.881Z,2.27
2022-09-01T20:28:39.188Z,5.43
2022-09-01T20:31:12.033Z,3.40
2022-09-01T20:33:40.331Z,2.30
2022-09-01T20:36:10.610Z,2.40
2022-09-01T20:39:04.296Z,2.60
2022-09-01T20:41:39.669Z,3.10
2022-09-01T20:44:08.423Z,2.60
2022-09-01T20:46:35.264Z,2.47
2022-09-01T20:49:02.873Z,2.33
2022-09-01T20:51:32.389Z,2.57
2022-09-01T20:54:17.540Z,2.50
2022-09-01T20:56:51.861Z,3.47
2022-09-01T20:59:37.540Z,2.80
2022-09-01T21:02:10.988Z,2.53
2022-09-01T21:04:42.824Z,3.63
2022-09-01T21:07:14.651Z,2.57
2022-09-01T21:09:41.474Z,2.40
2022-09-01T21:12:08.298Z,4.33
2022-09-01T21:14:35.375Z,2.43
2022-09-01T21:17:02.356Z,3.07
2022-09-01T21:19:39.040Z,3.67
2022-09-01T21:22:07.309Z,2.40
2022-09-01T21:24:34.764Z,2.47
2022-09-01T21:27:07.203Z,2.83
2022-09-01T21:29:54.428Z,2.60
2022-09-01T21:32:22.139Z,2.60
2022-09-01T21:34:50.419Z,4.40
2022-09-01T21:37:18.053Z,2.93
2022-09-01T21:39:45.291Z,2.70
2022-09-01T21:42:12.603Z,2.33
2022-09-01T21:44:39.951Z,5.10
2022-09-01T21:47:06.796Z,3.00
2022-09-01T21:49:33.579Z,2.90
2022-09-01T21:52:00.456Z,4.10
2022-09-01T21:54:27.219Z,2.20
2022-09-01T21:56:54.072Z,3.23
2022-09-01T21:59:20.990Z,3.53
2022-09-01T22:01:48.388Z,3.37
2022-09-01T22:04:17.602Z,2.00
2022-09-01T22:06:44.847Z,2.80
2022-09-01T22:09:20.702Z,2.77
2022-09-01T22:11:49.421Z,2.63
2022-09-01T22:14:16.356Z,3.93
2022-09-01T22:16:43.253Z,2.67
2022-09-01T22:19:10.060Z,5.43
2022-09-01T22:21:37.337Z,5.60
2022-09-01T22:24:05.258Z,2.77
2022-09-01T22:26:33.002Z,2.53
2022-09-01T22:29:00.686Z,4.67
2022-09-01T22:31:28.375Z,3.93
2022-09-01T22:33:55.422Z,2.23
2022-09-01T22:36:29.476Z,2.03
2022-09-01T22:38:58.331Z,2.70
2022-09-01T22:41:26.058Z,2.80
2022-09-01T22:43:52.912Z,2.60
2022-09-01T22:46:21.919Z,2.50
2022-09-01T22:48:49.370Z,2.23
2022-09-01T22:51:16.844Z,2.90
2022-09-01T22:53:45.046Z,3.43
2022-09-01T22:56:13.704Z,2.47
2022-09-01T22:58:40.561Z,2.00
2022-09-01T23:01:09.602Z,2.50
2022-09-01T23:03:36.574Z,2.73
2022-09-01T23:06:05.280Z,2.50
2022-09-01T23:08:32.351Z,2.53
2022-09-01T23:10:59.151Z,2.27
2022-09-01T23:13:28.249Z,1.80
2022-09-01T23:15:56.626Z,3.33
2022-09-01T23:18:24.126Z,3.47
2022-09-01T23:20:50.941Z,2.93
2022-09-01T23:23:18.093Z,5.30
2022-09-01T23:25:45.091Z,1.80
2022-09-01T23:28:14.322Z,2.20
2022-09-01T23:30:41.777Z,2.43
2022-09-01T23:33:08.593Z,3.07
2022-09-01T23:35:35.452Z,1.70
2022-09-01T23:38:02.311Z,1.93
2022-09-01T23:40:29.227Z,2.17
2022-09-01T23:42:56.056Z,1.93
2022-09-01T23:45:22.960Z,3.20
2022-09-01T23:47:49.883Z,1.83
2022-09-01T23:50:16.634Z,2.00
2022-09-01T23:52:43.571Z,2.37
2022-09-01T23:55:10.466Z,3.20
2022-09-01T23:57:37.480Z,2.50
